Triathlon Dunkerque 2021

Epreuve sélectionnée:


S - Résultats Scratch

Filtre:

Partants Général Top 5



Recherche:

N° dossard
Nom
Club
S - Classement arrivée
Clt Athlète Nat. Club Temps Sexe Cat CaP/Nat #1 Velo #2 CaP Split1 Split 2 Split 3 Split 4 Split 5 Split 6
10 169 COSSART Theo 00:22:55 M (10e) Senior (3e) 00:08:54 (1e) 01:04:39 (22e) 01:04:39 (22e) 01:04:39 (22e) 01:04:39 (22e) 00:16:39 (5e) 00:22:55 (10e) 00:29:34 (17e) 00:36:23 (18e) 00:42:46 (23e) 00:00:00 (0) Partagez votre performance
20 9 VIERTAIX Antoine 00:24:08 M (19e) Junior (7e) 00:10:43 (29e) 01:02:57 (17e) 01:02:57 (17e) 01:02:57 (17e) 01:02:57 (17e) 00:17:59 (23e) 00:24:08 (20e) 00:30:16 (20e) 00:36:26 (20e) 00:42:42 (17e) 00:00:00 (0) Partagez votre performance
22 151 DESMAREST Luc 00:24:09 M (21e) Senior (8e) 00:10:42 (28e) 01:02:48 (16e) 01:02:48 (16e) 01:02:48 (16e) 01:02:48 (16e) 00:18:00 (24e) 00:24:09 (22e) 00:30:16 (21e) 00:36:26 (19e) 00:42:42 (18e) 00:00:00 (0) Partagez votre performance
23 67 HARZIG Maxime 00:24:09 M (22e) Senior (9e) 00:10:30 (25e) 01:05:45 (26e) 01:05:45 (26e) 01:05:45 (26e) 01:05:45 (26e) 00:18:00 (26e) 00:24:09 (23e) 00:30:17 (23e) 00:36:26 (22e) 00:42:45 (22e) 00:00:00 (0) Partagez votre performance
24 175 SANDERS Sören 00:24:09 M (23e) Senior (10e) 00:10:11 (20e) 01:03:35 (18e) 01:03:35 (18e) 01:03:35 (18e) 01:03:35 (18e) 00:17:53 (21e) 00:24:09 (24e) 00:30:17 (24e) 00:36:27 (23e) 00:42:47 (24e) 00:00:00 (0) Partagez votre performance
25 117 LAGAE Rémy 00:24:12 M (24e) Senior (11e) 00:09:12 (4e) 01:04:50 (23e) 01:04:50 (23e) 01:04:50 (23e) 01:04:50 (23e) 00:17:29 (20e) 00:24:12 (25e) 00:31:20 (27e) 00:38:16 (33e) 00:45:07 (44e) 00:00:00 (0) Partagez votre performance
33 196 BARON Trystan 00:25:31 M (31e) Junior (9e) 00:11:14 (39e) 01:07:19 (38e) 01:07:19 (38e) 01:07:19 (38e) 01:07:19 (38e) 00:19:12 (40e) 00:25:31 (33e) 00:31:50 (38e) 00:38:25 (34e) 00:44:55 (41e) 00:00:00 (0) Partagez votre performance
34 74 DELBARRE Louise 00:25:31 F (3e) Cadet (2e) 00:11:17 (40e) 01:06:22 (32e) 01:06:22 (32e) 01:06:22 (32e) 01:06:22 (32e) 00:19:02 (36e) 00:25:31 (34e) 00:31:50 (36e) 00:38:25 (35e) 00:44:53 (38e) 00:00:00 (0) Partagez votre performance
37 98 FRYER-WINDER David 00:25:32 M (33e) Senior (16e) 00:10:58 (33e) 01:08:57 (52e) 01:08:57 (52e) 01:08:57 (52e) 01:08:57 (52e) 00:18:47 (32e) 00:25:32 (37e) 00:31:50 (39e) 00:38:25 (38e) 00:44:54 (39e) 00:00:00 (0) Partagez votre performance
38 65 DEC Jean-charles 00:25:32 M (34e) Master (5e) 00:10:32 (26e) 01:09:37 (59e) 01:09:37 (59e) 01:09:37 (59e) 01:09:37 (59e) 00:18:48 (33e) 00:25:32 (38e) 00:31:55 (40e) 00:38:46 (45e) 00:45:34 (51e) 00:00:00 (0) Partagez votre performance
40 195 RICHARD Noe 00:25:35 M (36e) Cadet (5e) 00:11:48 (48e) 01:04:53 (25e) 01:04:53 (25e) 01:04:53 (25e) 01:04:53 (25e) 00:19:23 (42e) 00:25:35 (40e) 00:31:41 (29e) 00:37:55 (28e) 00:44:15 (27e) 00:00:00 (0) Partagez votre performance
42 53 RUAMPS Alois 00:25:41 M (37e) Cadet (6e) 00:10:51 (31e) 01:07:44 (42e) 01:07:44 (42e) 01:07:44 (42e) 01:07:44 (42e) 00:19:04 (37e) 00:25:41 (42e) 00:32:14 (46e) 00:38:30 (44e) 00:44:55 (42e) 00:00:00 (0) Partagez votre performance
48 80 PEYTAVI Marie 00:26:01 F (7e) Senior (2e) 00:11:06 (36e) 01:13:13 (79e) 01:13:13 (79e) 01:13:13 (79e) 01:13:13 (79e) 00:19:31 (46e) 00:26:01 (48e) 00:32:50 (54e) 00:39:46 (54e) 00:46:46 (63e) 00:00:00 (0) Partagez votre performance
55 10 DARON Victor 00:26:29 M (48e) Senior (22e) 00:12:14 (62e) 01:06:51 (36e) 01:06:51 (36e) 01:06:51 (36e) 01:06:51 (36e) 00:20:10 (52e) 00:26:29 (55e) 00:32:41 (48e) 00:39:00 (50e) 00:45:22 (47e) 00:00:00 (0) Partagez votre performance
56 176 PARENT Alexis 00:26:37 M (49e) Senior (23e) 00:11:51 (50e) 01:08:33 (50e) 01:08:33 (50e) 01:08:33 (50e) 01:08:33 (50e) 00:20:12 (58e) 00:26:37 (56e) 00:33:29 (57e) 00:40:08 (62e) 00:46:45 (62e) 00:00:00 (0) Partagez votre performance
57 128 PROUVOST Fabien 00:26:42 M (50e) Senior (24e) 00:12:08 (60e) 01:09:23 (57e) 01:09:23 (57e) 01:09:23 (57e) 01:09:23 (57e) 00:20:11 (56e) 00:26:42 (57e) 00:33:29 (56e) 00:40:08 (60e) 00:46:42 (60e) 00:00:00 (0) Partagez votre performance
60 187 DEPLANQUE Rémi 00:27:09 M (53e) Senior (25e) 00:12:19 (65e) 01:09:07 (55e) 01:09:07 (55e) 01:09:07 (55e) 01:09:07 (55e) 00:20:40 (63e) 00:27:09 (60e) 00:33:37 (62e) 00:40:07 (58e) 00:46:37 (56e) 00:00:00 (0) Partagez votre performance
61 97 BONNAFFOUX Francois 00:27:10 M (54e) Senior (26e) 00:11:56 (54e) 01:11:03 (64e) 01:11:03 (64e) 01:11:03 (64e) 01:11:03 (64e) 00:20:28 (60e) 00:27:10 (61e) 00:33:36 (58e) 00:40:07 (57e) 00:46:45 (61e) 00:00:00 (0) Partagez votre performance
62 20 BARD Johan 00:27:10 M (55e) Master (10e) 00:12:48 (79e) 01:11:04 (65e) 01:11:04 (65e) 01:11:04 (65e) 01:11:04 (65e) 00:20:41 (64e) 00:27:10 (62e) 00:33:36 (59e) 00:40:07 (59e) 00:46:41 (59e) 00:00:00 (0) Partagez votre performance
66 171 CARDON Martin 00:27:44 M (58e) Senior (28e) 00:12:09 (61e) 01:12:22 (72e) 01:12:22 (72e) 01:12:22 (72e) 01:12:22 (72e) 00:20:44 (67e) 00:27:44 (66e) 00:34:28 (73e) 00:41:27 (74e) 00:48:29 (75e) 00:00:00 (0) Partagez votre performance
71 162 BONTE Simon 00:27:47 M (63e) Senior (31e) 00:13:09 (90e) 01:10:43 (63e) 01:10:43 (63e) 01:10:43 (63e) 01:10:43 (63e) 00:21:19 (76e) 00:27:47 (71e) 00:34:19 (71e) 00:41:11 (71e) 00:48:02 (71e) 00:00:00 (0) Partagez votre performance
72 110 FOURNIER Kevin 00:27:47 M (64e) Senior (32e) 00:13:04 (88e) 01:13:06 (78e) 01:13:06 (78e) 01:13:06 (78e) 01:13:06 (78e) 00:21:22 (80e) 00:27:47 (72e) 00:34:03 (69e) 00:40:25 (68e) 00:46:50 (67e) 00:00:00 (0) Partagez votre performance
74 46 AGEZ David 00:27:54 M (66e) Senior (33e) 00:13:47 (102e) 01:08:29 (49e) 01:08:29 (49e) 01:08:29 (49e) 01:08:29 (49e) 00:21:43 (86e) 00:27:54 (74e) 00:33:47 (63e) 00:39:45 (52e) 00:46:15 (52e) 00:00:00 (0) Partagez votre performance
75 193 TRINEL Jerome 00:27:55 M (67e) Master (12e) 00:13:37 (97e) 01:12:38 (75e) 01:12:38 (75e) 01:12:38 (75e) 01:12:38 (75e) 00:21:42 (84e) 00:27:55 (75e) 00:33:58 (65e) 00:40:24 (64e) 00:46:48 (66e) 00:00:00 (0) Partagez votre performance
79 123 QUEVA Valentine 00:28:11 F (9e) Cadet (4e) 00:10:58 (34e) 01:21:01 (133e) 01:21:01 (133e) 01:21:01 (133e) 01:21:01 (133e) 00:20:15 (59e) 00:28:11 (79e) 00:35:58 (92e) 00:43:38 (108e) 00:51:40 (128e) 00:00:00 (0) Partagez votre performance
80 15 THESSE David 00:28:18 M (71e) Master (14e) 00:14:03 (107e) 01:07:06 (37e) 01:07:06 (37e) 01:07:06 (37e) 01:07:06 (37e) 00:22:20 (96e) 00:28:18 (80e) 00:34:20 (72e) 00:40:24 (63e) 00:46:37 (55e) 00:00:00 (0) Partagez votre performance
81 184 SOHIER Sylvain 00:28:27 M (72e) Master (15e) 00:12:18 (63e) 01:11:52 (67e) 01:11:52 (67e) 01:11:52 (67e) 01:11:52 (67e) 00:21:21 (78e) 00:28:27 (81e) 00:35:29 (82e) 00:42:27 (83e) 00:49:31 (86e) 00:00:00 (0) Partagez votre performance
83 139 ORIAC Stephane 00:28:27 M (73e) Master (16e) 00:11:51 (49e) 01:18:44 (123e) 01:18:44 (123e) 01:18:44 (123e) 01:18:44 (123e) 00:21:19 (75e) 00:28:27 (83e) 00:35:30 (84e) 00:42:27 (84e) 00:49:34 (88e) 00:00:00 (0) Partagez votre performance
86 49 PIERROT Yves 00:28:32 M (76e) Master (17e) 00:12:46 (77e) 01:19:27 (127e) 01:19:27 (127e) 01:19:27 (127e) 01:19:27 (127e) 00:21:26 (82e) 00:28:32 (86e) 00:35:43 (88e) 00:43:04 (95e) 00:50:23 (99e) 00:00:00 (0) Partagez votre performance
87 145 GRAVE Lucie 00:28:33 F (11e) Cadet (5e) 00:12:02 (58e) 01:22:51 (143e) 01:22:51 (143e) 01:22:51 (143e) 01:22:51 (143e) 00:20:57 (69e) 00:28:33 (87e) 00:36:01 (97e) 00:43:36 (107e) 00:51:38 (127e) 00:00:00 (0) Partagez votre performance
103 93 DE SAINT LEGER Alain 00:29:55 M (90e) Master (28e) 00:14:33 (116e) 01:21:30 (135e) 01:21:30 (135e) 01:21:30 (135e) 01:21:30 (135e) 00:23:03 (105e) 00:29:55 (103e) 00:36:50 (105e) 00:43:30 (102e) 00:50:41 (104e) 00:00:00 (0) Partagez votre performance
105 50 LIBERT Gatien 00:29:59 M (92e) Senior (40e) 00:13:56 (104e) 01:16:39 (108e) 01:16:39 (108e) 01:16:39 (108e) 01:16:39 (108e) 00:23:04 (107e) 00:29:59 (105e) 00:36:50 (106e) 00:43:31 (103e) 00:50:44 (106e) 00:00:00 (0) Partagez votre performance
113 43 RIEZ Dominique 00:30:26 M (100e) Master (34e) 00:14:26 (114e) 01:18:33 (122e) 01:18:33 (122e) 01:18:33 (122e) 01:18:33 (122e) 00:23:28 (112e) 00:30:26 (113e) 00:37:26 (118e) 00:44:10 (119e) 00:51:01 (116e) 00:00:00 (0) Partagez votre performance
114 199 PINTIAUX Mathieu 00:30:36 M (101e) Senior (42e) 00:12:23 (67e) 01:29:37 (168e) 01:29:37 (168e) 01:29:37 (168e) 01:29:37 (168e) 00:22:56 (104e) 00:30:36 (114e) 00:37:56 (132e) 00:45:46 (137e) 00:54:50 (150e) 00:00:00 (0) Partagez votre performance
116 132 BOURDON Jerome 00:30:37 M (103e) Master (36e) 00:14:54 (129e) 01:16:53 (111e) 01:16:53 (111e) 01:16:53 (111e) 01:16:53 (111e) 00:24:07 (134e) 00:30:37 (116e) 00:37:25 (115e) 00:44:09 (114e) 00:50:57 (109e) 00:00:00 (0) Partagez votre performance
121 29 DEMILLY Benoit 00:30:38 M (107e) Master (39e) 00:13:30 (95e) 01:25:24 (153e) 01:25:24 (153e) 01:25:24 (153e) 01:25:24 (153e) 00:23:19 (108e) 00:30:38 (121e) 00:38:19 (136e) 00:46:01 (138e) 00:54:07 (143e) 00:00:00 (0) Partagez votre performance
122 47 DAMIENS Maxime 00:30:38 M (108e) Senior (44e) 00:15:44 (153e) 01:15:01 (90e) 01:15:01 (90e) 01:15:01 (90e) 01:15:01 (90e) 00:24:07 (133e) 00:30:38 (122e) 00:37:23 (114e) 00:44:12 (126e) 00:50:59 (112e) 00:00:00 (0) Partagez votre performance
125 164 BOUCHIQUET Pascal 00:30:39 M (111e) Master (41e) 00:15:43 (150e)